createdAt,value
2022-12-18T00:01:35.992Z,-4.05
2022-12-18T00:04:14.167Z,-4.06
2022-12-18T00:06:41.923Z,-4.11
2022-12-18T00:09:09.842Z,-4.16
2022-12-18T00:11:37.653Z,-4.19
2022-12-18T00:14:05.440Z,-4.22
2022-12-18T00:16:36.282Z,-4.22
2022-12-18T00:19:05.552Z,-4.21
2022-12-18T00:21:34.046Z,-4.20
2022-12-18T00:24:01.928Z,-4.18
2022-12-18T00:26:33.772Z,-4.19
2022-12-18T00:29:10.956Z,-4.20
2022-12-18T00:31:39.173Z,-4.20
2022-12-18T00:34:07.719Z,-4.20
2022-12-18T00:36:36.095Z,-4.22
2022-12-18T00:39:05.920Z,-4.23
2022-12-18T00:41:49.982Z,-4.24
2022-12-18T00:44:18.916Z,-4.24
2022-12-18T00:46:49.110Z,-4.21
2022-12-18T00:49:20.861Z,-4.19
2022-12-18T00:51:49.435Z,-4.17
2022-12-18T00:54:18.444Z,-4.19
2022-12-18T00:56:49.353Z,-4.18
2022-12-18T00:59:19.562Z,-4.18
2022-12-18T01:01:47.925Z,-4.21
2022-12-18T01:04:16.322Z,-4.20
2022-12-18T01:06:46.650Z,-4.18
2022-12-18T01:09:14.273Z,-4.16
2022-12-18T01:11:42.292Z,-4.14
2022-12-18T01:14:12.283Z,-4.11
2022-12-18T01:16:40.037Z,-4.08
2022-12-18T01:19:07.784Z,-4.01
2022-12-18T01:21:35.340Z,-3.97
2022-12-18T01:24:05.574Z,-3.95
2022-12-18T01:26:33.259Z,-3.93
2022-12-18T01:29:00.842Z,-3.92
2022-12-18T01:31:30.992Z,-3.95
2022-12-18T01:34:02.512Z,-3.98
2022-12-18T01:36:33.036Z,-3.98
2022-12-18T01:39:09.021Z,-3.96
2022-12-18T01:41:53.560Z,-3.93
2022-12-18T01:44:53.450Z,-3.89
2022-12-18T01:47:41.927Z,-3.82
2022-12-18T01:50:14.654Z,-3.81
2022-12-18T01:52:46.133Z,-3.80
2022-12-18T01:55:17.679Z,-3.84
2022-12-18T01:57:45.968Z,-3.82
2022-12-18T02:00:20.100Z,-3.84
2022-12-18T02:02:48.975Z,-3.85
2022-12-18T02:05:31.343Z,-3.87
2022-12-18T02:08:24.954Z,-3.87
2022-12-18T02:11:15.479Z,-3.88
2022-12-18T02:13:56.639Z,-3.91
2022-12-18T02:16:34.359Z,-3.95
2022-12-18T02:19:12.614Z,-3.97
2022-12-18T02:21:52.325Z,-3.96
2022-12-18T02:24:43.966Z,-3.89
2022-12-18T02:27:12.713Z,-3.80
2022-12-18T02:29:54.355Z,-3.76
2022-12-18T02:32:31.740Z,-3.75
2022-12-18T02:35:00.633Z,-3.75
2022-12-18T02:37:31.801Z,-3.81
2022-12-18T02:40:04.478Z,-3.89
2022-12-18T02:42:33.451Z,-3.91
2022-12-18T02:45:01.424Z,-3.95
2022-12-18T02:47:33.902Z,-3.96
2022-12-18T02:50:18.551Z,-3.91
2022-12-18T02:52:49.096Z,-3.81
2022-12-18T02:55:36.110Z,-3.73
2022-12-18T02:58:16.948Z,-3.62
2022-12-18T03:00:55.875Z,-3.65
2022-12-18T03:03:52.044Z,-3.61
2022-12-18T03:06:36.120Z,-3.53
2022-12-18T03:09:10.308Z,-3.42
2022-12-18T03:11:58.293Z,-3.32
2022-12-18T03:14:30.985Z,-3.26
2022-12-18T03:17:03.817Z,-3.21
2022-12-18T03:19:34.214Z,-3.18
2022-12-18T03:22:05.689Z,-3.21
2022-12-18T03:24:42.362Z,-3.24
2022-12-18T03:27:18.230Z,-3.26
2022-12-18T03:29:55.095Z,-3.21
2022-12-18T03:32:34.373Z,-3.16
2022-12-18T03:35:06.475Z,-3.11
2022-12-18T03:37:36.795Z,-3.07
2022-12-18T03:40:06.234Z,-3.04
2022-12-18T03:42:59.620Z,-3.02
2022-12-18T03:45:35.442Z,-3.01
2022-12-18T03:48:22.139Z,-3.02
2022-12-18T03:50:57.672Z,-3.04
2022-12-18T03:54:01.959Z,-3.07
2022-12-18T03:56:37.844Z,-3.05
2022-12-18T03:59:06.967Z,-3.02
2022-12-18T04:01:39.456Z,-3.05
2022-12-18T04:04:09.302Z,-3.09
2022-12-18T04:06:39.828Z,-3.07
2022-12-18T04:09:09.689Z,-3.08
2022-12-18T04:11:42.219Z,-3.25
2022-12-18T04:14:14.454Z,-3.35
2022-12-18T04:16:45.816Z,-3.39
2022-12-18T04:19:15.795Z,-3.34
2022-12-18T04:21:44.851Z,-3.31
2022-12-18T04:24:13.294Z,-3.28
2022-12-18T04:26:46.140Z,-3.27
2022-12-18T04:29:18.749Z,-3.20
2022-12-18T04:31:46.456Z,-3.17
2022-12-18T04:34:14.073Z,-3.16
2022-12-18T04:36:46.896Z,-3.14
2022-12-18T04:39:15.669Z,-3.14
2022-12-18T04:41:43.267Z,-3.30
2022-12-18T04:44:11.165Z,-3.34
2022-12-18T04:46:38.887Z,-3.35
2022-12-18T04:49:06.529Z,-3.48
2022-12-18T04:51:34.171Z,-3.68
2022-12-18T04:54:01.740Z,-3.75
2022-12-18T04:56:29.333Z,-3.71
2022-12-18T04:58:56.882Z,-3.67
2022-12-18T05:01:28.160Z,-3.63
2022-12-18T05:04:03.434Z,-3.59
2022-12-18T05:06:31.203Z,-3.58
2022-12-18T05:08:59.337Z,-3.55
2022-12-18T05:11:26.917Z,-3.54
2022-12-18T05:13:54.491Z,-3.53
2022-12-18T05:16:22.112Z,-3.53
2022-12-18T05:18:49.763Z,-3.55
2022-12-18T05:21:17.405Z,-3.54
2022-12-18T05:23:45.070Z,-3.56
2022-12-18T05:26:18.124Z,-3.53
2022-12-18T05:28:46.881Z,-3.52
2022-12-18T05:31:15.335Z,-3.52
2022-12-18T05:33:43.946Z,-3.52
2022-12-18T05:36:12.640Z,-3.53
2022-12-18T05:38:40.645Z,-3.55
2022-12-18T05:41:09.360Z,-3.59
2022-12-18T05:43:39.405Z,-3.62
2022-12-18T05:46:12.311Z,-3.69
2022-12-18T05:48:42.389Z,-3.78
2022-12-18T05:51:15.517Z,-3.86
2022-12-18T05:53:44.262Z,-3.93
2022-12-18T05:56:15.712Z,-4.00
2022-12-18T05:58:43.677Z,-4.06
2022-12-18T06:01:18.374Z,-4.09
2022-12-18T06:03:47.238Z,-4.12
2022-12-18T06:06:21.140Z,-4.16
2022-12-18T06:08:50.505Z,-4.19
2022-12-18T06:11:20.970Z,-4.21
2022-12-18T06:13:57.810Z,-4.27
2022-12-18T06:16:28.191Z,-4.37
2022-12-18T06:19:00.192Z,-4.48
2022-12-18T06:21:29.396Z,-4.54
2022-12-18T06:23:57.219Z,-4.57
2022-12-18T06:26:28.270Z,-4.59
2022-12-18T06:28:56.772Z,-4.60
2022-12-18T06:31:25.122Z,-4.63
2022-12-18T06:33:53.004Z,-4.67
2022-12-18T06:36:22.159Z,-4.68
2022-12-18T06:38:50.634Z,-4.70
2022-12-18T06:41:21.558Z,-4.73
2022-12-18T06:43:49.437Z,-4.73
2022-12-18T06:46:17.594Z,-4.75
2022-12-18T06:48:48.755Z,-4.75
2022-12-18T06:51:21.313Z,-4.75
2022-12-18T06:53:49.260Z,-4.76
2022-12-18T06:56:16.883Z,-4.77
2022-12-18T06:58:44.578Z,-4.79
2022-12-18T07:01:13.766Z,-4.84
2022-12-18T07:03:42.964Z,-4.98
2022-12-18T07:06:16.297Z,-5.11
2022-12-18T07:08:44.509Z,-5.21
2022-12-18T07:11:13.061Z,-5.32
2022-12-18T07:13:41.070Z,-5.36
2022-12-18T07:16:18.651Z,-5.40
2022-12-18T07:18:48.808Z,-5.47
2022-12-18T07:21:20.427Z,-5.51
2022-12-18T07:23:49.253Z,-5.47
2022-12-18T07:26:19.918Z,-5.42
2022-12-18T07:28:47.927Z,-5.35
2022-12-18T07:31:18.667Z,-5.27
2022-12-18T07:33:46.647Z,-5.24
2022-12-18T07:36:15.707Z,-5.22
2022-12-18T07:38:43.900Z,-5.18
2022-12-18T07:41:13.847Z,-5.13
2022-12-18T07:43:42.743Z,-5.11
2022-12-18T07:46:13.488Z,-5.09
2022-12-18T07:48:42.634Z,-5.11
2022-12-18T07:51:13.586Z,-5.07
2022-12-18T07:53:42.584Z,-5.04
2022-12-18T07:56:30.490Z,-4.99
2022-12-18T07:59:00.210Z,-4.92
2022-12-18T08:01:28.990Z,-4.86
2022-12-18T08:03:58.344Z,-4.78
2022-12-18T08:06:26.637Z,-4.71
2022-12-18T08:08:55.645Z,-4.66
2022-12-18T08:11:25.069Z,-4.61
2022-12-18T08:13:53.325Z,-4.57
2022-12-18T08:16:22.211Z,-4.57
2022-12-18T08:18:50.523Z,-4.57
2022-12-18T08:21:23.644Z,-4.54
2022-12-18T08:23:53.393Z,-4.54
2022-12-18T08:26:21.816Z,-4.59
2022-12-18T08:28:51.243Z,-4.63
2022-12-18T08:31:19.990Z,-4.60
2022-12-18T08:33:50.781Z,-4.56
2022-12-18T08:36:18.947Z,-4.52
2022-12-18T08:38:47.317Z,-4.41
2022-12-18T08:41:16.887Z,-4.31
2022-12-18T08:44:00.577Z,-4.23
2022-12-18T08:46:35.000Z,-4.19
2022-12-18T08:49:03.774Z,-4.13
2022-12-18T08:51:31.617Z,-4.04
2022-12-18T08:53:59.832Z,-3.98
2022-12-18T08:56:27.800Z,-3.95
2022-12-18T08:58:55.812Z,-3.90
2022-12-18T09:01:23.935Z,-3.84
2022-12-18T09:03:52.068Z,-3.81
2022-12-18T09:06:21.822Z,-3.83
2022-12-18T09:08:50.060Z,-3.75
2022-12-18T09:11:24.231Z,-3.65
2022-12-18T09:13:52.495Z,-3.53
2022-12-18T09:16:31.674Z,-3.41
2022-12-18T09:19:04.478Z,-3.33
2022-12-18T09:21:37.437Z,-3.38
2022-12-18T09:24:08.557Z,-3.37
2022-12-18T09:26:37.436Z,-3.28
2022-12-18T09:29:07.980Z,-3.21
2022-12-18T09:31:37.012Z,-3.15
2022-12-18T09:34:04.642Z,-3.11
2022-12-18T09:36:32.252Z,-3.06
2022-12-18T09:39:02.641Z,-2.98
2022-12-18T09:41:46.729Z,-2.89
2022-12-18T09:44:31.787Z,-2.84
2022-12-18T09:47:03.775Z,-2.77
2022-12-18T09:49:35.423Z,-2.67
2022-12-18T09:52:10.534Z,-2.56
2022-12-18T09:54:42.974Z,-2.49
2022-12-18T09:57:21.410Z,-2.45
2022-12-18T10:00:12.990Z,-2.56
2022-12-18T10:02:42.760Z,-2.70
2022-12-18T10:05:37.894Z,-2.76
2022-12-18T10:08:23.480Z,-2.96
2022-12-18T10:10:57.659Z,-3.15
2022-12-18T10:13:43.735Z,-3.31
2022-12-18T10:16:20.491Z,-3.41
2022-12-18T10:19:18.088Z,-3.53
2022-12-18T10:22:04.003Z,-3.62
2022-12-18T10:24:47.533Z,-3.69
2022-12-18T10:27:17.470Z,-3.61
2022-12-18T10:29:46.532Z,-3.57
2022-12-18T10:32:17.903Z,-3.56
2022-12-18T10:34:56.610Z,-3.63
2022-12-18T10:37:30.433Z,-3.61
2022-12-18T10:40:21.888Z,-3.59
2022-12-18T10:43:13.696Z,-3.57
2022-12-18T10:45:42.839Z,-3.53
2022-12-18T10:48:27.873Z,-3.52
2022-12-18T10:51:13.040Z,-3.59
2022-12-18T10:53:43.814Z,-3.69
2022-12-18T10:56:12.253Z,-3.76
2022-12-18T10:58:41.024Z,-3.80
2022-12-18T11:01:15.533Z,-3.80
2022-12-18T11:03:47.656Z,-3.77
2022-12-18T11:06:18.355Z,-3.69
2022-12-18T11:09:00.561Z,-3.61
2022-12-18T11:11:29.767Z,-3.65
2022-12-18T11:14:06.563Z,-3.74
2022-12-18T11:16:57.919Z,-3.80
2022-12-18T11:19:36.473Z,-3.75
2022-12-18T11:22:21.781Z,-3.71
2022-12-18T11:28:06.461Z,-3.78
2022-12-18T11:30:36.509Z,-3.84
2022-12-18T11:33:16.296Z,-3.76
2022-12-18T11:36:04.625Z,-3.71
2022-12-18T11:38:39.046Z,-3.71
2022-12-18T11:41:17.970Z,-3.76
2022-12-18T11:43:53.988Z,-3.85
2022-12-18T11:46:35.493Z,-3.85
2022-12-18T11:49:13.967Z,-3.78
2022-12-18T11:51:52.597Z,-3.74
2022-12-18T11:54:20.291Z,-3.71
2022-12-18T11:56:54.982Z,-3.70
2022-12-18T11:59:40.058Z,-3.73
2022-12-18T12:02:30.875Z,-3.70
2022-12-18T12:05:27.224Z,-3.66
2022-12-18T12:08:06.080Z,-3.61
2022-12-18T12:10:55.811Z,-3.62
2022-12-18T12:13:34.771Z,-3.63
2022-12-18T12:16:12.787Z,-3.60
2022-12-18T12:18:43.913Z,-3.57
2022-12-18T12:21:34.279Z,-3.57
2022-12-18T12:24:25.555Z,-3.54
2022-12-18T12:27:14.782Z,-3.59
2022-12-18T12:30:15.266Z,-3.58
2022-12-18T12:32:52.811Z,-3.56
2022-12-18T12:35:26.426Z,-3.58
2022-12-18T12:38:04.545Z,-3.60
2022-12-18T12:41:00.590Z,-3.59
2022-12-18T12:43:47.885Z,-3.59
2022-12-18T12:46:22.825Z,-3.59
2022-12-18T12:48:55.775Z,-3.57
2022-12-18T12:51:33.794Z,-3.61
2022-12-18T12:54:06.121Z,-3.61
2022-12-18T12:56:47.007Z,-3.63
2022-12-18T12:59:33.497Z,-3.74
2022-12-18T13:02:30.236Z,-3.77
2022-12-18T13:05:14.061Z,-3.74
2022-12-18T13:08:07.325Z,-3.72
2022-12-18T13:10:44.586Z,-3.76
2022-12-18T13:13:23.723Z,-3.76
2022-12-18T13:16:12.372Z,-3.75
2022-12-18T13:18:50.007Z,-3.78
2022-12-18T13:21:30.615Z,-3.79
2022-12-18T13:24:16.735Z,-3.73
2022-12-18T13:26:44.326Z,-3.78
2022-12-18T13:29:11.910Z,-3.90
2022-12-18T13:31:40.837Z,-3.95
2022-12-18T13:34:28.300Z,-3.91
2022-12-18T13:37:33.284Z,-3.89
2022-12-18T13:40:01.027Z,-3.87
2022-12-18T13:43:02.884Z,-3.87
2022-12-18T13:45:42.382Z,-3.88
2022-12-18T13:48:18.042Z,-3.92
2022-12-18T13:50:52.885Z,-3.94
2022-12-18T13:53:40.123Z,-3.92
2022-12-18T13:56:08.362Z,-3.88
2022-12-18T13:58:36.285Z,-3.87
2022-12-18T14:01:05.783Z,-3.87
2022-12-18T14:03:33.754Z,-3.88
2022-12-18T14:06:08.743Z,-3.93
2022-12-18T14:08:43.184Z,-3.99
2022-12-18T14:11:22.737Z,-4.03
2022-12-18T14:13:51.239Z,-4.07
2022-12-18T14:16:19.368Z,-4.07
2022-12-18T14:18:55.358Z,-4.03
2022-12-18T14:21:33.467Z,-4.04
2022-12-18T14:24:22.829Z,-4.10
2022-12-18T14:26:51.445Z,-4.16
2022-12-18T14:29:24.192Z,-4.21
2022-12-18T14:32:18.651Z,-4.27
2022-12-18T14:34:49.824Z,-4.32
2022-12-18T14:37:23.011Z,-4.33
2022-12-18T14:40:07.326Z,-4.34
2022-12-18T14:42:38.578Z,-4.36
2022-12-18T14:45:42.686Z,-4.33
2022-12-18T14:48:23.039Z,-4.39
2022-12-18T14:51:10.948Z,-4.41
2022-12-18T14:53:48.885Z,-4.47
2022-12-18T14:56:30.005Z,-4.57
2022-12-18T14:59:04.584Z,-4.70
2022-12-18T15:01:45.982Z,-4.81
2022-12-18T15:04:31.823Z,-4.88
2022-12-18T15:07:20.677Z,-4.94
2022-12-18T15:10:12.192Z,-4.93
2022-12-18T15:12:49.579Z,-4.87
2022-12-18T15:15:43.296Z,-4.81
2022-12-18T15:18:13.253Z,-4.81
2022-12-18T15:20:49.362Z,-4.83
2022-12-18T15:23:29.413Z,-4.85
2022-12-18T15:26:18.188Z,-4.81
2022-12-18T15:28:50.771Z,-4.80
2022-12-18T15:31:23.340Z,-4.90
2022-12-18T15:33:53.099Z,-4.94
2022-12-18T15:36:26.814Z,-4.95
2022-12-18T15:39:05.162Z,-5.02
2022-12-18T15:41:36.455Z,-5.13
2022-12-18T15:44:26.662Z,-5.18
2022-12-18T15:46:54.285Z,-5.18
2022-12-18T15:49:21.905Z,-5.14
2022-12-18T15:51:55.656Z,-5.06
2022-12-18T15:54:43.612Z,-5.04
2022-12-18T15:57:28.179Z,-5.03
2022-12-18T15:59:58.838Z,-5.01
2022-12-18T16:02:27.016Z,-5.00
2022-12-18T16:04:55.021Z,-5.02
2022-12-18T16:07:25.036Z,-5.06
2022-12-18T16:09:53.405Z,-5.09
2022-12-18T16:12:23.502Z,-5.21
2022-12-18T16:14:51.154Z,-5.37
2022-12-18T16:17:19.162Z,-5.49
2022-12-18T16:19:46.793Z,-5.54
2022-12-18T16:22:31.468Z,-5.61
2022-12-18T16:24:59.022Z,-5.64
2022-12-18T16:27:26.798Z,-5.61
2022-12-18T16:29:54.351Z,-5.55
2022-12-18T16:32:23.610Z,-5.51
2022-12-18T16:34:52.395Z,-5.47
2022-12-18T16:37:19.973Z,-5.47
2022-12-18T16:39:47.560Z,-5.54
2022-12-18T16:42:21.036Z,-5.56
2022-12-18T16:44:49.703Z,-5.52
2022-12-18T16:47:18.552Z,-5.52
2022-12-18T16:49:46.543Z,-5.59
2022-12-18T16:52:14.547Z,-5.65
2022-12-18T16:54:42.182Z,-5.71
2022-12-18T16:57:14.110Z,-5.74
2022-12-18T16:59:41.775Z,-5.74
2022-12-18T17:02:17.157Z,-5.67
2022-12-18T17:04:47.160Z,-5.61
2022-12-18T17:07:15.937Z,-5.60
2022-12-18T17:09:43.616Z,-5.68
2022-12-18T17:12:11.267Z,-5.78
2022-12-18T17:14:38.883Z,-5.81
2022-12-18T17:17:20.806Z,-5.85
2022-12-18T17:19:49.696Z,-5.87
2022-12-18T17:22:17.658Z,-5.87
2022-12-18T17:24:47.218Z,-5.86
2022-12-18T17:27:15.789Z,-5.85
2022-12-18T17:29:47.883Z,-5.90
2022-12-18T17:32:17.663Z,-5.99
2022-12-18T17:34:45.421Z,-6.06
2022-12-18T17:37:13.492Z,-6.13
2022-12-18T17:39:42.066Z,-6.17
2022-12-18T17:42:10.661Z,-6.23
2022-12-18T17:44:44.210Z,-6.30
2022-12-18T17:47:13.591Z,-6.37
2022-12-18T17:49:41.322Z,-6.32
2022-12-18T17:52:09.472Z,-6.29
2022-12-18T17:54:39.865Z,-6.26
2022-12-18T17:57:07.765Z,-6.29
2022-12-18T17:59:35.379Z,-6.33
2022-12-18T18:02:03.323Z,-6.35
2022-12-18T18:04:31.035Z,-6.35
2022-12-18T18:06:58.614Z,-6.41
2022-12-18T18:09:26.239Z,-6.48
2022-12-18T18:12:09.911Z,-6.56
2022-12-18T18:14:37.536Z,-6.58
2022-12-18T18:17:05.500Z,-6.56
2022-12-18T18:19:34.028Z,-6.51
2022-12-18T18:22:02.180Z,-6.46
2022-12-18T18:24:30.991Z,-6.44
2022-12-18T18:27:01.541Z,-6.41
2022-12-18T18:29:32.638Z,-6.47
2022-12-18T18:32:00.656Z,-6.54
2022-12-18T18:34:31.174Z,-6.56
2022-12-18T18:36:59.525Z,-6.57
2022-12-18T18:39:27.545Z,-6.59
2022-12-18T18:41:55.905Z,-6.65
2022-12-18T18:44:26.205Z,-6.67
2022-12-18T18:46:56.132Z,-6.72
2022-12-18T18:49:27.030Z,-6.76
2022-12-18T18:51:56.820Z,-6.77
2022-12-18T18:54:26.745Z,-6.78
2022-12-18T18:59:42.884Z,-6.84
2022-12-18T19:02:15.711Z,-6.86
2022-12-18T19:04:45.717Z,-6.88
2022-12-18T19:07:22.311Z,-6.87
2022-12-18T19:10:05.258Z,-6.87
2022-12-18T19:12:58.772Z,-6.90
2022-12-18T19:15:26.732Z,-6.88
2022-12-18T19:17:54.378Z,-6.88
2022-12-18T19:20:22.259Z,-6.91
2022-12-18T19:22:55.111Z,-6.95
2022-12-18T19:25:38.511Z,-7.00
2022-12-18T19:28:15.973Z,-6.99
2022-12-18T19:30:55.365Z,-6.96
2022-12-18T19:33:43.183Z,-6.95
2022-12-18T19:36:21.589Z,-6.94
2022-12-18T19:38:51.017Z,-6.98
2022-12-18T19:41:20.311Z,-7.01
2022-12-18T19:43:49.722Z,-7.04
2022-12-18T19:46:21.713Z,-7.07
2022-12-18T19:48:50.272Z,-7.11
2022-12-18T19:51:20.934Z,-7.12
2022-12-18T19:53:52.408Z,-7.11
2022-12-18T19:56:27.218Z,-7.07
2022-12-18T19:58:55.264Z,-7.08
2022-12-18T20:01:25.066Z,-7.07
2022-12-18T20:03:54.579Z,-7.07
2022-12-18T20:06:27.863Z,-7.05
2022-12-18T20:09:00.114Z,-7.01
2022-12-18T20:11:30.038Z,-7.00
2022-12-18T20:13:58.375Z,-7.02
2022-12-18T20:16:26.103Z,-7.02
2022-12-18T20:18:54.561Z,-7.02
2022-12-18T20:21:22.887Z,-6.99
2022-12-18T20:23:50.990Z,-6.99
2022-12-18T20:26:19.311Z,-7.02
2022-12-18T20:28:48.111Z,-7.06
2022-12-18T20:31:15.735Z,-7.08
2022-12-18T20:33:44.615Z,-7.07
2022-12-18T20:36:21.343Z,-7.10
2022-12-18T20:38:54.676Z,-7.12
2022-12-18T20:41:27.363Z,-7.13
2022-12-18T20:44:23.407Z,-7.17
2022-12-18T20:46:54.182Z,-7.23
2022-12-18T20:49:24.013Z,-7.27
2022-12-18T20:51:53.891Z,-7.33
2022-12-18T20:54:23.151Z,-7.41
2022-12-18T20:56:51.372Z,-7.49
2022-12-18T20:59:19.656Z,-7.54
2022-12-18T21:01:49.001Z,-7.54
2022-12-18T21:04:18.858Z,-7.55
2022-12-18T21:06:52.414Z,-7.55
2022-12-18T21:09:23.785Z,-7.60
2022-12-18T21:12:06.520Z,-7.66
2022-12-18T21:14:34.983Z,-7.73
2022-12-18T21:17:02.631Z,-7.78
2022-12-18T21:19:30.420Z,-7.85
2022-12-18T21:21:58.758Z,-7.89
2022-12-18T21:24:28.792Z,-7.91
2022-12-18T21:27:00.620Z,-7.89
2022-12-18T21:29:28.748Z,-7.88
2022-12-18T21:31:56.327Z,-7.86
2022-12-18T21:34:26.564Z,-7.82
2022-12-18T21:36:56.158Z,-7.79
2022-12-18T21:39:24.563Z,-7.79
2022-12-18T21:42:08.352Z,-7.79
2022-12-18T21:44:42.153Z,-7.78
2022-12-18T21:47:21.298Z,-7.75
2022-12-18T21:49:52.970Z,-7.73
2022-12-18T21:52:24.573Z,-7.70
2022-12-18T21:55:09.586Z,-7.65
2022-12-18T21:57:39.089Z,-7.61
2022-12-18T22:00:10.719Z,-7.57
2022-12-18T22:02:48.040Z,-7.56
2022-12-18T22:05:16.296Z,-7.54
2022-12-18T22:07:43.945Z,-7.51
2022-12-18T22:10:11.541Z,-7.52
2022-12-18T22:12:43.330Z,-7.53
2022-12-18T22:15:21.624Z,-7.51
2022-12-18T22:17:50.742Z,-7.48
2022-12-18T22:20:20.495Z,-7.44
2022-12-18T22:22:51.643Z,-7.40
2022-12-18T22:25:19.282Z,-7.39
2022-12-18T22:28:06.851Z,-7.37
2022-12-18T22:30:35.235Z,-7.33
2022-12-18T22:33:03.760Z,-7.31
2022-12-18T22:35:31.438Z,-7.28
2022-12-18T22:38:00.027Z,-7.25
2022-12-18T22:40:28.101Z,-7.24
2022-12-18T22:42:56.105Z,-7.25
2022-12-18T22:45:25.767Z,-7.26
2022-12-18T22:47:53.821Z,-7.25
2022-12-18T22:50:21.558Z,-7.23
2022-12-18T22:52:49.237Z,-7.19
2022-12-18T22:55:16.945Z,-7.14
2022-12-18T22:57:44.559Z,-7.10
2022-12-18T23:00:20.771Z,-7.08
2022-12-18T23:02:59.916Z,-7.07
2022-12-18T23:05:30.672Z,-7.04
2022-12-18T23:07:59.238Z,-7.03
2022-12-18T23:10:27.503Z,-7.01
2022-12-18T23:12:55.287Z,-6.99
2022-12-18T23:15:22.906Z,-6.99
2022-12-18T23:17:58.035Z,-6.99
2022-12-18T23:20:27.451Z,-7.01
2022-12-18T23:22:55.117Z,-7.06
2022-12-18T23:25:22.967Z,-7.10
2022-12-18T23:27:51.104Z,-7.10
2022-12-18T23:30:19.127Z,-7.10
2022-12-18T23:32:46.694Z,-7.07
2022-12-18T23:35:15.754Z,-7.08
2022-12-18T23:38:00.704Z,-7.07
2022-12-18T23:40:29.894Z,-7.06
2022-12-18T23:43:00.287Z,-7.08
2022-12-18T23:45:27.963Z,-7.12
2022-12-18T23:47:55.617Z,-7.21
2022-12-18T23:50:28.875Z,-7.32
2022-12-18T23:53:05.036Z,-7.39
2022-12-18T23:55:39.354Z,-7.42
2022-12-18T23:58:07.853Z,-7.43
